Time;durP1;ratioP1;P1;durP2;ratioP2;P2;SDS_P1;SDS_P2;PMS_P1;PMS_P2;Temp;Humidity;BMP_temperature;BMP_pressure;BME280_temperature;BME280_humidity;BME280_pressure;Samples;Min_cycle;Max_cycle;Signal;HPM_P1;HPM_P2
2024/01/30 00:00:55;;;;;;;7.53;7.07;;;25.60;1.00;;;;;;2610533;54;20248;-67
2024/01/30 00:03:21;;;;;;;7.83;7.37;;;25.40;1.00;;;;;;2610222;54;20187;-67
2024/01/30 00:05:47;;;;;;;8.00;7.50;;;25.40;1.00;;;;;;2610761;49;20723;-67
2024/01/30 00:08:12;;;;;;;7.63;7.20;;;25.40;1.00;;;;;;2610813;54;20229;-67
2024/01/30 00:10:38;;;;;;;7.30;6.90;;;25.30;1.00;;;;;;2609960;54;20171;-67
2024/01/30 00:13:03;;;;;;;7.47;6.97;;;25.30;1.00;;;;;;2610356;54;20163;-67
2024/01/30 00:15:29;;;;;;;7.20;6.80;;;25.40;1.00;;;;;;2610719;54;20191;-56
2024/01/30 00:17:55;;;;;;;7.57;7.17;;;25.40;1.00;;;;;;2611261;39;20546;-56
2024/01/30 00:20:21;;;;;;;7.90;7.40;;;25.40;1.00;;;;;;2610736;47;20534;-56
2024/01/30 00:22:46;;;;;;;6.97;6.57;;;25.40;1.00;;;;;;2609533;54;20147;-56
2024/01/30 00:25:12;;;;;;;6.90;6.50;;;25.40;1.00;;;;;;2610260;54;21001;-58
2024/01/30 00:27:37;;;;;;;7.77;7.37;;;25.30;1.00;;;;;;2609772;47;20637;-58
2024/01/30 00:30:04;;;;;;;7.30;6.87;;;25.20;1.00;;;;;;2610464;54;20148;-58
2024/01/30 00:32:30;;;;;;;7.50;7.00;;;25.30;1.00;;;;;;2609809;54;20153;-57
2024/01/30 00:34:56;;;;;;;7.13;6.20;;;25.30;1.00;;;;;;2610161;54;20431;-67
2024/01/30 00:37:21;;;;;;;7.70;7.20;;;25.20;1.00;;;;;;2610627;54;20153;-68
2024/01/30 00:39:47;;;;;;;6.77;6.37;;;25.20;1.00;;;;;;2610841;54;20160;-67
2024/01/30 00:42:13;;;;;;;7.23;6.80;;;25.10;1.00;;;;;;2609887;54;20169;-67
2024/01/30 00:44:38;;;;;;;6.80;6.40;;;25.10;1.00;;;;;;2610791;54;20157;-66
2024/01/30 00:47:05;;;;;;;6.87;6.47;;;25.10;1.00;;;;;;2609757;54;20279;-66
2024/01/30 00:49:30;;;;;;;7.27;6.87;;;25.00;1.00;;;;;;2610597;54;20161;-67
2024/01/30 00:51:56;;;;;;;7.17;6.67;;;25.00;1.00;;;;;;2610356;54;20401;-66
2024/01/30 00:54:22;;;;;;;6.47;6.07;;;24.90;1.00;;;;;;2610124;54;20166;-67
2024/01/30 00:56:47;;;;;;;6.80;6.40;;;24.90;1.00;;;;;;2610661;54;20154;-67
2024/01/30 00:59:13;;;;;;;6.87;6.47;;;24.90;1.00;;;;;;2610861;39;20676;-66
2024/01/30 01:01:39;;;;;;;6.67;6.27;;;24.90;1.00;;;;;;2609303;54;20294;-66
2024/01/30 01:04:04;;;;;;;7.00;6.60;;;24.80;1.00;;;;;;2608548;54;20168;-65
2024/01/30 01:06:30;;;;;;;7.40;7.00;;;24.80;1.00;;;;;;2610114;54;20170;-66
2024/01/30 01:08:55;;;;;;;6.77;6.37;;;24.70;1.00;;;;;;2609759;54;20197;-66
2024/01/30 01:11:21;;;;;;;6.70;6.30;;;24.70;1.00;;;;;;2611023;54;20129;-65
2024/01/30 01:13:47;;;;;;;6.70;6.30;;;24.70;1.00;;;;;;2609575;47;20183;-67
2024/01/30 01:16:13;;;;;;;6.33;5.93;;;24.70;1.00;;;;;;2609924;54;20399;-56
2024/01/30 01:18:39;;;;;;;7.13;6.63;;;24.60;1.00;;;;;;2610436;54;20905;-58
2024/01/30 01:21:04;;;;;;;7.03;6.53;;;24.60;1.00;;;;;;2610639;54;20169;-57
2024/01/30 01:23:30;;;;;;;6.10;5.70;;;24.50;1.00;;;;;;2610066;54;20172;-57
2024/01/30 01:25:56;;;;;;;6.27;5.90;;;24.50;1.00;;;;;;2610678;54;20225;-64
2024/01/30 01:28:22;;;;;;;7.03;6.53;;;24.50;1.00;;;;;;2610144;47;20161;-64
2024/01/30 01:30:47;;;;;;;6.87;6.30;;;24.50;1.00;;;;;;2610360;54;20169;-64
2024/01/30 01:33:14;;;;;;;6.80;6.40;;;24.50;1.00;;;;;;2611863;39;20941;-63
2024/01/30 01:35:40;;;;;;;6.40;6.00;;;24.40;1.00;;;;;;2611776;54;20217;-64
2024/01/30 01:38:05;;;;;;;6.97;6.67;;;24.40;1.00;;;;;;2611098;54;20493;-63
2024/01/30 01:40:31;;;;;;;7.40;7.00;;;24.40;1.00;;;;;;2611366;54;20409;-64
2024/01/30 01:42:57;;;;;;;7.23;6.83;;;24.30;1.00;;;;;;2610338;47;20164;-65
2024/01/30 01:45:22;;;;;;;6.53;6.03;;;24.30;1.00;;;;;;2610837;47;20201;-62
2024/01/30 01:47:51;;;;;;;6.53;6.13;;;24.30;1.00;;;;;;2611578;54;20147;-62
2024/01/30 01:50:20;;;;;;;6.43;6.03;;;24.30;1.00;;;;;;2610618;54;20172;-61
2024/01/30 01:52:50;;;;;;;6.77;6.37;;;24.30;1.00;;;;;;2610391;54;20422;-61
2024/01/30 01:55:21;;;;;;;6.10;5.80;;;24.30;1.00;;;;;;2611357;54;20492;-60
2024/01/30 01:57:47;;;;;;;6.77;6.37;;;24.20;1.00;;;;;;2610169;47;20414;-60
2024/01/30 02:00:14;;;;;;;6.67;6.27;;;24.20;1.00;;;;;;2611292;39;20769;-59
2024/01/30 02:02:39;;;;;;;7.20;6.80;;;24.20;1.00;;;;;;2611619;39;20688;-61
2024/01/30 02:05:06;;;;;;;7.20;6.63;;;24.10;1.00;;;;;;2610281;54;20407;-60
2024/01/30 02:07:31;;;;;;;6.87;6.40;;;24.10;1.00;;;;;;2609669;54;20157;-61
2024/01/30 02:09:57;;;;;;;6.93;6.53;;;24.10;1.00;;;;;;2609402;47;20417;-60
2024/01/30 02:12:23;;;;;;;7.50;7.00;;;24.10;1.00;;;;;;2611299;54;20171;-60
2024/01/30 02:14:49;;;;;;;6.27;5.97;;;24.00;1.00;;;;;;2610455;54;20146;-60
2024/01/30 02:17:15;;;;;;;6.63;6.20;;;24.00;1.00;;;;;;2610348;39;20764;-60
2024/01/30 02:19:41;;;;;;;6.67;6.27;;;24.00;1.00;;;;;;2609677;54;20492;-60
2024/01/30 02:22:07;;;;;;;7.23;6.83;;;24.00;1.00;;;;;;2609588;54;20422;-60
2024/01/30 02:24:33;;;;;;;7.03;6.60;;;24.00;1.00;;;;;;2610416;54;21020;-59
2024/01/30 02:26:59;;;;;;;6.47;6.07;;;24.00;1.00;;;;;;2609572;54;20404;-60
2024/01/30 02:29:25;;;;;;;6.03;5.63;;;23.90;1.00;;;;;;2609763;54;20182;-60
2024/01/30 02:31:50;;;;;;;6.70;6.40;;;23.90;1.00;;;;;;2610344;54;20179;-59
2024/01/30 02:34:16;;;;;;;7.63;7.20;;;23.90;1.00;;;;;;2609935;54;20171;-58
2024/01/30 02:36:45;;;;;;;6.50;6.10;;;23.90;1.00;;;;;;2610207;54;20654;-59
2024/01/30 02:39:11;;;;;;;6.80;6.40;;;23.90;1.00;;;;;;2610031;54;20777;-59
2024/01/30 02:41:37;;;;;;;6.67;6.27;;;23.80;1.00;;;;;;2610514;47;20402;-59
2024/01/30 02:44:03;;;;;;;6.57;6.17;;;23.80;1.00;;;;;;2610093;54;20302;-59
2024/01/30 02:46:29;;;;;;;7.33;6.83;;;23.90;1.00;;;;;;2609781;54;20150;-59
2024/01/30 02:48:55;;;;;;;6.67;6.27;;;23.90;1.00;;;;;;2609768;54;20577;-60
2024/01/30 02:51:21;;;;;;;7.23;6.83;;;23.80;1.00;;;;;;2610102;54;20464;-60
2024/01/30 02:53:47;;;;;;;6.73;6.33;;;23.80;1.00;;;;;;2608793;54;20414;-59
2024/01/30 02:56:13;;;;;;;7.10;6.67;;;23.80;1.00;;;;;;2610519;54;20174;-59
2024/01/30 02:58:42;;;;;;;6.37;5.97;;;23.70;1.00;;;;;;2609013;54;20158;-59
2024/01/30 03:01:08;;;;;;;6.40;6.00;;;23.70;1.00;;;;;;2609746;39;20850;-59
2024/01/30 03:03:36;;;;;;;7.37;6.87;;;23.70;1.00;;;;;;2609617;47;20548;-59
2024/01/30 03:06:02;;;;;;;7.07;6.67;;;23.70;1.00;;;;;;2609715;54;20692;-59
2024/01/30 03:08:28;;;;;;;7.10;6.60;;;23.70;1.00;;;;;;2609219;54;20439;-58
2024/01/30 03:10:54;;;;;;;6.07;5.77;;;23.70;1.00;;;;;;2610927;54;20254;-58
2024/01/30 03:13:20;;;;;;;7.17;6.77;;;23.70;1.00;;;;;;2609375;54;20416;-59
2024/01/30 03:15:45;;;;;;;6.87;6.47;;;23.70;1.00;;;;;;2610681;54;20159;-58
2024/01/30 03:18:11;;;;;;;7.17;6.67;;;23.70;1.00;;;;;;2609595;54;20426;-59
2024/01/30 03:20:37;;;;;;;6.33;5.93;;;23.60;1.00;;;;;;2610076;54;20155;-59
2024/01/30 03:23:02;;;;;;;7.27;6.77;;;23.70;1.00;;;;;;2610107;54;21103;-57
2024/01/30 03:25:28;;;;;;;5.90;5.60;;;23.60;1.00;;;;;;2609264;54;20165;-59
2024/01/30 03:27:54;;;;;;;7.07;6.57;;;23.60;1.00;;;;;;2609962;54;20166;-59
2024/01/30 03:30:19;;;;;;;6.27;5.87;;;23.60;1.00;;;;;;2610267;54;20158;-59
2024/01/30 03:32:45;;;;;;;7.13;6.53;;;23.50;1.00;;;;;;2608932;47;20177;-59
2024/01/30 03:35:11;;;;;;;7.00;6.60;;;23.60;1.00;;;;;;2609971;54;20174;-60
2024/01/30 03:37:37;;;;;;;6.63;6.23;;;23.50;1.00;;;;;;2610214;54;20185;-58
2024/01/30 03:40:03;;;;;;;6.63;6.13;;;23.50;1.00;;;;;;2609264;54;20161;-58
2024/01/30 03:42:29;;;;;;;7.13;6.67;;;23.50;1.00;;;;;;2609635;54;20440;-60
2024/01/30 03:44:55;;;;;;;6.67;6.17;;;23.50;1.00;;;;;;2609470;54;21020;-67
2024/01/30 03:47:21;;;;;;;6.40;6.00;;;23.50;1.00;;;;;;2609990;54;20176;-69
2024/01/30 03:49:47;;;;;;;7.10;6.60;;;23.50;1.00;;;;;;2609870;54;20424;-67
2024/01/30 03:52:13;;;;;;;6.10;5.80;;;23.50;1.00;;;;;;2609707;54;20392;-66
2024/01/30 03:54:38;;;;;;;7.03;6.60;;;23.50;1.00;;;;;;2609851;54;20180;-63
2024/01/30 03:57:04;;;;;;;6.57;6.17;;;23.40;1.00;;;;;;2609715;54;20150;-64
2024/01/30 03:59:30;;;;;;;6.90;6.33;;;23.40;1.00;;;;;;2610185;54;20176;-63
2024/01/30 04:01:56;;;;;;;6.70;6.30;;;23.40;1.00;;;;;;2608488;51;20539;-64
2024/01/30 04:04:21;;;;;;;6.17;5.80;;;23.40;1.00;;;;;;2610312;39;20576;-63
2024/01/30 04:06:47;;;;;;;6.90;6.50;;;23.40;1.00;;;;;;2609354;54;20818;-64
2024/01/30 04:09:13;;;;;;;6.63;6.10;;;23.50;1.00;;;;;;2609582;54;20264;-64
2024/01/30 04:11:39;;;;;;;6.17;5.87;;;23.40;1.00;;;;;;2610221;54;20167;-64
2024/01/30 04:14:05;;;;;;;7.77;7.17;;;23.40;1.00;;;;;;2609056;54;21028;-63
2024/01/30 04:16:31;;;;;;;6.70;6.30;;;23.40;1.00;;;;;;2609700;54;20412;-61
2024/01/30 04:18:58;;;;;;;6.67;6.27;;;23.40;1.00;;;;;;2610627;54;20185;-61
2024/01/30 04:21:24;;;;;;;6.97;6.57;;;23.40;1.00;;;;;;2608963;54;20186;-61
2024/01/30 04:23:51;;;;;;;6.67;6.27;;;23.40;1.00;;;;;;2608490;54;21000;-61
2024/01/30 04:26:17;;;;;;;7.20;6.77;;;23.40;1.00;;;;;;2609807;47;20181;-61
2024/01/30 04:28:46;;;;;;;6.60;6.20;;;23.40;1.00;;;;;;2609769;54;20402;-59
2024/01/30 04:31:11;;;;;;;6.47;6.07;;;23.30;1.00;;;;;;2609773;39;20810;-60
2024/01/30 04:33:38;;;;;;;7.33;6.90;;;23.30;1.00;;;;;;2610081;54;20508;-60
2024/01/30 04:36:08;;;;;;;6.97;6.50;;;23.40;1.00;;;;;;2609186;54;20435;-61
2024/01/30 04:38:34;;;;;;;5.87;5.57;;;23.40;1.00;;;;;;2609699;54;20419;-60
2024/01/30 04:41:00;;;;;;;6.40;6.03;;;23.30;1.00;;;;;;2609900;54;20456;-60
2024/01/30 04:43:26;;;;;;;6.20;5.80;;;23.30;1.00;;;;;;2608162;54;20282;-60
2024/01/30 04:45:52;;;;;;;6.67;6.20;;;23.30;1.00;;;;;;2609899;54;20164;-61
2024/01/30 04:48:17;;;;;;;6.10;5.70;;;23.30;1.00;;;;;;2610152;54;20529;-60
2024/01/30 04:50:43;;;;;;;7.43;6.80;;;23.30;1.00;;;;;;2609564;54;20178;-61
2024/01/30 04:53:09;;;;;;;6.37;6.07;;;23.30;1.00;;;;;;2609161;54;20172;-61
2024/01/30 04:55:35;;;;;;;6.60;6.10;;;23.30;1.00;;;;;;2609993;54;20674;-61
2024/01/30 04:58:01;;;;;;;6.77;6.37;;;23.30;1.00;;;;;;2609910;54;20180;-61
2024/01/30 05:00:27;;;;;;;6.30;5.80;;;23.30;1.00;;;;;;2609720;47;20431;-60
2024/01/30 05:02:52;;;;;;;5.70;5.40;;;23.30;1.00;;;;;;2608703;54;20761;-59
2024/01/30 05:05:18;;;;;;;6.10;5.60;;;23.20;1.00;;;;;;2609704;54;20155;-67
2024/01/30 05:07:44;;;;;;;6.20;5.60;;;23.30;1.00;;;;;;2608527;47;20155;-68
2024/01/30 05:10:09;;;;;;;7.03;6.17;;;23.30;1.00;;;;;;2610461;54;20163;-67
2024/01/30 05:12:35;;;;;;;5.90;5.50;;;23.30;1.00;;;;;;2608733;54;20187;-64
2024/01/30 05:15:01;;;;;;;5.80;5.30;;;23.30;1.00;;;;;;2609684;54;20936;-67
2024/01/30 05:17:26;;;;;;;5.70;5.30;;;23.30;1.00;;;;;;2609558;54;20235;-67
2024/01/30 05:19:52;;;;;;;5.83;5.23;;;23.30;1.00;;;;;;2609876;54;20167;-68
2024/01/30 05:22:18;;;;;;;7.80;5.20;;;23.30;1.00;;;;;;2610349;54;20166;-68
2024/01/30 05:24:44;;;;;;;5.93;5.47;;;23.30;1.00;;;;;;2609125;47;20169;-61
2024/01/30 05:27:10;;;;;;;5.93;5.57;;;23.30;1.00;;;;;;2609178;47;20418;-59
2024/01/30 05:29:36;;;;;;;5.70;5.20;;;23.30;1.00;;;;;;2610030;54;20408;-60
2024/01/30 05:32:02;;;;;;;7.83;6.30;;;23.30;1.00;;;;;;2609273;54;20435;-60
2024/01/30 05:34:27;;;;;;;6.07;5.53;;;23.30;1.00;;;;;;2609289;54;20248;-60
2024/01/30 05:36:53;;;;;;;5.20;4.80;;;23.30;1.00;;;;;;2608529;54;22015;-60
2024/01/30 05:39:19;;;;;;;5.93;5.63;;;23.20;1.00;;;;;;2608930;54;20167;-59
2024/01/30 05:41:44;;;;;;;6.13;5.63;;;23.20;1.00;;;;;;2609516;54;20270;-60
2024/01/30 05:44:10;;;;;;;5.50;5.20;;;23.30;1.00;;;;;;2609742;54;20150;-59
2024/01/30 05:46:36;;;;;;;5.80;5.20;;;23.30;1.00;;;;;;2608739;54;20992;-60
2024/01/30 05:49:01;;;;;;;5.90;5.60;;;23.30;1.00;;;;;;2608835;54;20238;-61
2024/01/30 05:51:28;;;;;;;5.70;5.20;;;23.30;1.00;;;;;;2608131;54;20497;-60
2024/01/30 05:53:54;;;;;;;6.20;5.80;;;23.30;1.00;;;;;;2609288;54;20159;-60
2024/01/30 05:56:19;;;;;;;5.17;4.87;;;23.30;1.00;;;;;;2609785;39;20906;-60
2024/01/30 05:58:45;;;;;;;6.23;5.83;;;23.30;1.00;;;;;;2608146;47;20435;-60
2024/01/30 06:01:11;;;;;;;5.60;5.30;;;23.30;1.00;;;;;;2609399;54;20154;-60
2024/01/30 06:03:37;;;;;;;5.47;5.13;;;23.30;1.00;;;;;;2609736;54;20194;-60
2024/01/30 06:06:02;;;;;;;6.07;5.47;;;23.40;1.00;;;;;;2609270;47;20983;-57
2024/01/30 06:08:28;;;;;;;4.57;4.27;;;23.40;1.00;;;;;;2611184;31;20597;-57
2024/01/30 06:10:54;;;;;;;5.10;4.77;;;23.40;1.00;;;;;;2610921;47;20175;-57
2024/01/30 06:13:20;;;;;;;5.50;5.10;;;23.40;1.00;;;;;;2609728;54;20335;-58
2024/01/30 06:15:46;;;;;;;5.27;4.80;;;23.40;1.00;;;;;;2609587;54;20175;-64
2024/01/30 06:18:11;;;;;;;4.83;4.40;;;23.40;1.00;;;;;;2610332;54;20421;-62
2024/01/30 06:20:37;;;;;;;4.30;4.10;;;23.40;1.00;;;;;;2609540;54;20164;-63
2024/01/30 06:23:03;;;;;;;4.80;4.50;;;23.40;1.00;;;;;;2609768;54;20174;-64
2024/01/30 06:25:29;;;;;;;5.40;5.10;;;23.40;1.00;;;;;;2609732;39;20791;-65
2024/01/30 06:27:54;;;;;;;4.13;3.93;;;23.40;1.00;;;;;;2610873;47;20171;-64
2024/01/30 06:30:20;;;;;;;4.57;4.27;;;23.40;1.00;;;;;;2610215;39;20737;-63
2024/01/30 06:32:46;;;;;;;4.57;4.27;;;23.40;1.00;;;;;;2609771;54;20668;-64
2024/01/30 06:35:12;;;;;;;4.80;4.33;;;23.40;1.00;;;;;;2610874;39;20741;-57
2024/01/30 06:37:38;;;;;;;5.27;4.97;;;23.40;1.00;;;;;;2610659;54;20953;-57
2024/01/30 06:40:05;;;;;;;5.33;4.97;;;23.40;1.00;;;;;;2610442;54;20425;-57
2024/01/30 06:42:31;;;;;;;5.00;4.70;;;23.40;1.00;;;;;;2609817;54;20143;-57
2024/01/30 06:44:56;;;;;;;5.33;5.03;;;23.40;1.00;;;;;;2610119;47;20436;-55
2024/01/30 06:47:22;;;;;;;5.53;4.93;;;23.40;1.00;;;;;;2611341;54;20433;-58
2024/01/30 06:49:48;;;;;;;5.53;5.23;;;23.40;1.00;;;;;;2609912;54;20299;-56
2024/01/30 06:52:14;;;;;;;5.20;4.90;;;23.40;1.00;;;;;;2608947;54;20157;-58
2024/01/30 06:54:40;;;;;;;5.70;5.30;;;23.40;1.00;;;;;;2610355;47;20198;-57
2024/01/30 06:57:08;;;;;;;5.43;5.13;;;23.40;1.00;;;;;;2608815;47;20416;-58
2024/01/30 06:59:35;;;;;;;4.97;4.67;;;23.40;1.00;;;;;;2608907;54;20175;-57
2024/01/30 07:02:00;;;;;;;5.23;4.90;;;23.40;1.00;;;;;;2609238;39;20814;-57
2024/01/30 07:04:26;;;;;;;4.93;4.63;;;23.40;1.00;;;;;;2609627;54;20411;-58
2024/01/30 07:06:53;;;;;;;5.20;4.90;;;23.40;1.00;;;;;;2608225;54;20267;-59
2024/01/30 07:09:19;;;;;;;5.33;5.00;;;23.40;1.00;;;;;;2608340;47;20177;-59
2024/01/30 07:11:44;;;;;;;5.60;5.20;;;23.40;1.00;;;;;;2608825;54;20420;-59
2024/01/30 07:14:10;;;;;;;4.83;4.40;;;23.40;1.00;;;;;;2610322;54;20170;-59
2024/01/30 07:16:36;;;;;;;5.60;5.23;;;23.40;1.00;;;;;;2610473;39;20970;-63
2024/01/30 07:19:02;;;;;;;5.57;5.17;;;23.40;1.00;;;;;;2610483;54;20169;-63
2024/01/30 07:21:28;;;;;;;4.40;4.10;;;23.40;1.00;;;;;;2609688;54;20246;-62
2024/01/30 07:23:57;;;;;;;4.90;4.60;;;23.40;1.00;;;;;;2610231;54;21401;-64
2024/01/30 07:26:23;;;;;;;4.70;4.40;;;23.40;1.00;;;;;;2610973;54;20420;-61
2024/01/30 07:28:49;;;;;;;5.40;5.10;;;23.40;1.00;;;;;;2610055;54;20412;-60
2024/01/30 07:31:15;;;;;;;5.17;4.87;;;23.40;1.00;;;;;;2611007;54;20423;-60
2024/01/30 07:33:41;;;;;;;5.30;5.00;;;23.40;1.00;;;;;;2610510;54;20417;-60
2024/01/30 07:36:07;;;;;;;4.60;4.30;;;23.40;1.00;;;;;;2610403;54;20173;-61
2024/01/30 07:38:32;;;;;;;5.20;4.90;;;23.50;1.00;;;;;;2608803;54;20265;-59
2024/01/30 07:40:58;;;;;;;5.43;5.13;;;23.50;1.00;;;;;;2608989;47;20186;-59
2024/01/30 07:43:24;;;;;;;5.57;5.27;;;23.50;1.00;;;;;;2609119;54;20197;-59
2024/01/30 07:45:49;;;;;;;6.40;6.00;;;23.70;1.00;;;;;;2610050;54;20148;-61
2024/01/30 07:48:15;;;;;;;5.97;5.50;;;23.70;1.00;;;;;;2609026;47;21145;-59
2024/01/30 07:50:41;;;;;;;6.90;6.30;;;23.80;1.00;;;;;;2604559;54;20265;-60
2024/01/30 07:53:06;;;;;;;7.93;5.63;;;23.80;1.00;;;;;;2609928;54;20162;-61
2024/01/30 07:55:32;;;;;;;6.70;6.10;;;23.90;1.00;;;;;;2608956;54;20711;-61
2024/01/30 07:58:01;;;;;;;6.60;6.10;;;24.00;1.00;;;;;;2609709;54;20672;-60
2024/01/30 08:00:28;;;;;;;7.67;6.47;;;24.00;1.00;;;;;;2608293;54;20165;-61
2024/01/30 08:02:55;;;;;;;7.97;5.67;;;24.00;1.00;;;;;;2609700;54;20486;-62
2024/01/30 08:05:22;;;;;;;46.07;13.33;;;24.10;1.00;;;;;;2609774;39;20809;-61
2024/01/30 08:07:49;;;;;;;15.60;7.43;;;24.10;1.00;;;;;;2608830;54;20399;-61
2024/01/30 08:10:15;;;;;;;37.03;7.90;;;24.20;1.00;;;;;;2610105;54;20396;-61
2024/01/30 08:12:41;;;;;;;20.47;6.47;;;24.20;1.00;;;;;;2610485;54;20383;-61
2024/01/30 08:15:07;;;;;;;15.17;7.40;;;24.10;1.00;;;;;;2610377;54;20400;-60
2024/01/30 08:17:34;;;;;;;13.90;8.07;;;24.00;1.00;;;;;;2609197;54;20427;-61
2024/01/30 08:20:00;;;;;;;10.47;7.20;;;24.00;1.00;;;;;;2609324;54;20424;-62
2024/01/30 08:22:25;;;;;;;7.83;6.73;;;24.00;1.00;;;;;;2610267;54;20445;-61
2024/01/30 08:24:51;;;;;;;20.90;8.43;;;24.00;1.00;;;;;;2609996;54;20161;-69
2024/01/30 08:27:17;;;;;;;14.13;7.20;;;24.00;1.00;;;;;;2609952;54;20395;-67
2024/01/30 08:29:43;;;;;;;10.87;6.80;;;24.10;1.00;;;;;;2610812;54;20173;-68
2024/01/30 08:32:08;;;;;;;7.27;6.50;;;24.00;1.00;;;;;;2609844;54;20532;-68
2024/01/30 08:34:34;;;;;;;9.27;6.83;;;23.90;1.00;;;;;;2611180;54;20159;-62
2024/01/30 08:37:00;;;;;;;7.00;6.30;;;23.90;1.00;;;;;;2610247;54;20739;-61
2024/01/30 08:39:25;;;;;;;7.37;6.70;;;23.90;1.00;;;;;;2610082;54;20205;-62
2024/01/30 08:41:51;;;;;;;7.53;6.40;;;23.90;1.00;;;;;;2609800;54;20201;-62
2024/01/30 08:44:17;;;;;;;12.43;6.93;;;23.80;1.00;;;;;;2610102;54;20163;-61
2024/01/30 08:46:46;;;;;;;12.83;7.23;;;23.80;1.00;;;;;;2609773;54;20241;-61
2024/01/30 08:49:13;;;;;;;12.07;7.10;;;23.80;1.00;;;;;;2610805;54;20436;-62
2024/01/30 08:51:39;;;;;;;11.93;6.83;;;23.80;1.00;;;;;;2610190;54;20531;-61
2024/01/30 08:54:05;;;;;;;8.40;7.20;;;23.90;1.00;;;;;;2609224;54;20441;-63
2024/01/30 08:56:30;;;;;;;10.10;6.57;;;23.90;1.00;;;;;;2610122;54;20524;-59
2024/01/30 08:58:56;;;;;;;8.90;6.60;;;23.90;1.00;;;;;;2608626;54;20206;-60
2024/01/30 09:01:22;;;;;;;7.70;6.67;;;23.80;1.00;;;;;;2608950;47;20698;-60
2024/01/30 09:03:47;;;;;;;6.73;6.03;;;23.80;1.00;;;;;;2609803;54;20262;-60
2024/01/30 09:06:13;;;;;;;9.80;6.67;;;23.80;1.00;;;;;;2610406;39;21006;-60
2024/01/30 09:08:39;;;;;;;6.27;5.77;;;23.90;1.00;;;;;;2606449;54;20246;-57
2024/01/30 09:11:15;;;;;;;7.87;6.40;;;23.90;1.00;;;;;;2608025;54;20169;-57
2024/01/30 09:13:41;;;;;;;10.03;5.93;;;23.90;1.00;;;;;;2608333;54;20427;-57
2024/01/30 09:16:07;;;;;;;6.67;6.10;;;23.80;1.00;;;;;;2608889;54;20434;-58
2024/01/30 09:18:33;;;;;;;8.00;6.50;;;23.80;1.00;;;;;;2609801;47;20445;-57
2024/01/30 09:20:59;;;;;;;10.27;6.80;;;23.70;1.00;;;;;;2610133;54;20538;-58
2024/01/30 09:23:26;;;;;;;7.20;6.60;;;23.60;1.00;;;;;;2608534;47;20164;-58
2024/01/30 09:25:52;;;;;;;6.70;6.00;;;23.60;1.00;;;;;;2609857;54;20423;-58
2024/01/30 09:28:18;;;;;;;6.57;5.80;;;23.60;1.00;;;;;;2609557;47;20588;-58
2024/01/30 09:30:44;;;;;;;7.17;6.47;;;23.60;1.00;;;;;;2610238;54;20245;-59
2024/01/30 09:33:09;;;;;;;16.20;6.83;;;23.60;1.00;;;;;;2609889;39;20547;-57
2024/01/30 09:35:36;;;;;;;8.17;6.23;;;23.60;1.00;;;;;;2608719;54;20256;-61
2024/01/30 09:38:02;;;;;;;6.63;5.57;;;23.60;1.00;;;;;;2609790;39;20548;-60
2024/01/30 09:40:28;;;;;;;9.70;6.33;;;23.60;1.00;;;;;;2611303;54;20396;-59
2024/01/30 09:42:54;;;;;;;6.30;5.80;;;23.60;1.00;;;;;;2609242;54;20432;-60
2024/01/30 09:45:24;;;;;;;22.23;6.80;;;23.50;1.00;;;;;;2610523;39;20854;-64
2024/01/30 09:47:50;;;;;;;6.73;6.00;;;23.50;1.00;;;;;;2610581;54;21040;-65
2024/01/30 09:50:17;;;;;;;5.90;5.50;;;23.50;1.00;;;;;;2609926;39;20895;-64
2024/01/30 09:52:47;;;;;;;7.10;6.57;;;23.50;1.00;;;;;;2610749;54;20390;-64
2024/01/30 09:55:13;;;;;;;7.40;6.70;;;23.40;1.00;;;;;;2610987;54;20406;-66
2024/01/30 09:57:41;;;;;;;6.93;5.70;;;23.40;1.00;;;;;;2610334;54;21025;-62
2024/01/30 10:00:08;;;;;;;12.60;5.37;;;23.50;1.00;;;;;;2610546;54;20396;-62
2024/01/30 10:02:34;;;;;;;6.77;6.30;;;23.70;1.00;;;;;;2610045;31;21072;-63
2024/01/30 10:05:00;;;;;;;6.80;6.00;;;24.00;1.00;;;;;;2611206;54;20436;-57
2024/01/30 10:07:26;;;;;;;14.63;6.57;;;24.00;1.00;;;;;;2610156;54;20440;-59
2024/01/30 10:09:53;;;;;;;7.07;6.27;;;24.00;1.00;;;;;;2610751;54;20398;-58
2024/01/30 10:12:19;;;;;;;7.30;6.43;;;24.10;1.00;;;;;;2609719;54;20670;-56
2024/01/30 10:14:45;;;;;;;7.03;6.50;;;24.30;1.00;;;;;;2610162;54;20428;-58
2024/01/30 10:17:12;;;;;;;7.63;7.03;;;24.50;1.00;;;;;;2610281;54;20389;-59
2024/01/30 10:19:41;;;;;;;6.50;5.90;;;24.40;1.00;;;;;;2611517;54;20168;-59
2024/01/30 10:22:07;;;;;;;7.60;6.90;;;24.30;1.00;;;;;;2612166;39;21103;-59
2024/01/30 10:24:36;;;;;;;7.10;6.50;;;24.10;1.00;;;;;;2611235;54;21323;-58
2024/01/30 10:27:01;;;;;;;7.30;6.60;;;23.90;1.00;;;;;;2612131;54;20469;-58
2024/01/30 10:29:28;;;;;;;6.50;5.90;;;23.80;1.00;;;;;;2611376;47;20528;-58
2024/01/30 10:32:04;;;;;;;7.33;6.70;;;23.70;1.00;;;;;;2612161;54;20170;-58
2024/01/30 10:34:30;;;;;;;8.20;6.97;;;23.60;1.00;;;;;;2612669;39;20799;-58
2024/01/30 10:37:17;;;;;;;6.83;6.23;;;23.70;1.00;;;;;;2611809;54;20413;-57
2024/01/30 10:39:44;;;;;;;6.73;6.20;;;23.60;1.00;;;;;;2612000;54;20410;-58
2024/01/30 10:42:18;;;;;;;6.27;5.87;;;23.60;1.00;;;;;;2613171;39;20998;-58
2024/01/30 10:45:09;;;;;;;7.03;6.43;;;23.60;1.00;;;;;;2611737;54;20424;-60
2024/01/30 10:47:38;;;;;;;6.90;6.30;;;23.50;1.00;;;;;;2612009;54;21216;-59
2024/01/30 10:50:04;;;;;;;7.70;6.67;;;23.60;1.00;;;;;;2612543;54;20402;-59
2024/01/30 10:52:32;;;;;;;6.53;6.13;;;23.60;1.00;;;;;;2612036;54;20439;-59
2024/01/30 10:54:59;;;;;;;10.23;7.40;;;23.50;1.00;;;;;;2611452;54;20502;-57
2024/01/30 10:57:26;;;;;;;8.03;7.43;;;23.50;1.00;;;;;;2611864;39;21286;-57
2024/01/30 11:00:10;;;;;;;7.00;6.40;;;23.50;1.00;;;;;;2612419;39;20786;-57
2024/01/30 11:02:38;;;;;;;7.40;6.80;;;23.50;1.00;;;;;;2610101;54;20453;-57
2024/01/30 11:05:05;;;;;;;6.83;6.33;;;23.50;1.00;;;;;;2612054;47;20449;-57
2024/01/30 11:07:31;;;;;;;6.90;6.40;;;23.50;1.00;;;;;;2611682;54;20427;-58
2024/01/30 11:10:00;;;;;;;8.10;7.50;;;23.40;1.00;;;;;;2612134;47;20420;-58
2024/01/30 11:12:27;;;;;;;7.03;6.53;;;23.40;1.00;;;;;;2610800;54;20138;-57
2024/01/30 11:15:04;;;;;;;6.77;6.27;;;23.40;1.00;;;;;;2611267;54;20696;-56
2024/01/30 11:17:45;;;;;;;7.07;6.57;;;23.40;1.00;;;;;;2611286;47;20425;-56
2024/01/30 11:20:15;;;;;;;7.43;6.43;;;23.40;1.00;;;;;;2611523;54;20439;-57
2024/01/30 11:22:51;;;;;;;6.70;6.13;;;23.40;1.00;;;;;;2612333;54;20411;-57
2024/01/30 11:25:22;;;;;;;6.37;5.97;;;23.40;1.00;;;;;;2611505;54;20423;-58
2024/01/30 11:27:51;;;;;;;6.90;5.90;;;23.40;1.00;;;;;;2611190;54;20384;-59
2024/01/30 11:30:28;;;;;;;7.33;6.60;;;23.40;1.00;;;;;;2610994;47;21077;-56
2024/01/30 11:33:08;;;;;;;6.30;5.80;;;23.30;1.00;;;;;;2611457;54;20531;-54
2024/01/30 11:35:36;;;;;;;6.20;5.80;;;23.30;1.00;;;;;;2611942;54;20410;-57
2024/01/30 11:38:02;;;;;;;5.97;5.67;;;23.30;1.00;;;;;;2611618;54;20408;-57
2024/01/30 11:40:29;;;;;;;7.00;6.40;;;23.20;1.00;;;;;;2611640;54;21012;-55
2024/01/30 11:42:56;;;;;;;6.63;6.20;;;23.20;1.00;;;;;;2609710;54;20483;-56
2024/01/30 11:45:22;;;;;;;6.10;5.70;;;23.20;1.00;;;;;;2611200;54;20437;-56
2024/01/30 11:47:48;;;;;;;6.90;6.30;;;23.20;1.00;;;;;;2611503;54;20942;-55
2024/01/30 11:50:14;;;;;;;5.93;5.53;;;23.20;1.00;;;;;;2611837;54;20670;-56
2024/01/30 11:52:41;;;;;;;6.10;5.60;;;23.20;1.00;;;;;;2611369;47;20538;-56
2024/01/30 11:55:08;;;;;;;6.07;5.60;;;23.20;1.00;;;;;;2611645;54;20479;-60
2024/01/30 11:57:35;;;;;;;6.40;5.90;;;23.20;1.00;;;;;;2610996;54;20415;-60
2024/01/30 12:00:04;;;;;;;6.20;5.80;;;23.10;1.00;;;;;;2610927;54;20977;-60
2024/01/30 12:02:30;;;;;;;6.30;5.90;;;23.10;1.00;;;;;;2610253;39;20817;-60
2024/01/30 12:04:55;;;;;;;5.57;5.20;;;23.10;1.00;;;;;;2611195;54;20433;-57
2024/01/30 12:07:21;;;;;;;6.53;6.03;;;23.10;1.00;;;;;;2611421;54;20147;-58
2024/01/30 12:09:54;;;;;;;6.07;5.57;;;23.10;1.00;;;;;;2610811;54;20161;-59
2024/01/30 12:12:23;;;;;;;6.47;5.97;;;23.10;1.00;;;;;;2610619;54;20420;-57
2024/01/30 12:14:50;;;;;;;6.70;6.20;;;23.10;1.00;;;;;;2611122;54;20395;-57
2024/01/30 12:17:31;;;;;;;6.20;5.70;;;23.10;1.00;;;;;;2612105;54;20410;-58
2024/01/30 12:20:11;;;;;;;6.60;6.13;;;23.10;1.00;;;;;;2611925;39;20789;-58
2024/01/30 12:22:44;;;;;;;6.20;5.80;;;23.10;1.00;;;;;;2611003;54;20392;-58
2024/01/30 12:25:14;;;;;;;6.10;5.70;;;23.00;1.00;;;;;;2610942;54;20547;-57
2024/01/30 12:27:44;;;;;;;6.50;6.07;;;23.00;1.00;;;;;;2610997;54;20392;-55
2024/01/30 12:30:14;;;;;;;6.60;6.20;;;23.00;1.00;;;;;;2611469;54;20945;-56
2024/01/30 12:32:42;;;;;;;6.63;6.23;;;23.00;1.00;;;;;;2611166;54;20476;-56
2024/01/30 12:35:14;;;;;;;6.37;5.97;;;23.00;1.00;;;;;;2611306;54;20447;-56
2024/01/30 12:37:41;;;;;;;7.30;6.70;;;23.00;1.00;;;;;;2611303;54;20382;-56
2024/01/30 12:40:13;;;;;;;6.50;6.00;;;23.00;1.00;;;;;;2611614;54;20399;-57
2024/01/30 12:42:38;;;;;;;6.23;5.83;;;23.00;1.00;;;;;;2611874;54;20437;-56
2024/01/30 12:45:05;;;;;;;6.33;5.83;;;23.00;1.00;;;;;;2610030;47;20433;-57
2024/01/30 12:47:32;;;;;;;7.30;6.70;;;23.00;1.00;;;;;;2611374;54;20156;-56
2024/01/30 12:49:57;;;;;;;5.90;5.50;;;23.00;1.00;;;;;;2611103;54;20424;-56
2024/01/30 12:52:23;;;;;;;6.30;6.00;;;23.00;1.00;;;;;;2610024;54;20952;-56